createdAt,value
2022-08-31T00:01:05.536Z,101483.71
2022-08-31T00:03:53.073Z,101481.20
2022-08-31T00:06:22.377Z,101483.05
2022-08-31T00:08:51.396Z,101485.23
2022-08-31T00:11:28.357Z,101483.96
2022-08-31T00:14:05.363Z,101483.41
2022-08-31T00:16:38.788Z,101480.08
2022-08-31T00:19:07.653Z,101478.95
2022-08-31T00:21:36.097Z,101479.52
2022-08-31T00:24:04.678Z,101481.67
2022-08-31T00:26:33.168Z,101484.17
2022-08-31T00:29:01.683Z,101481.77
2022-08-31T00:31:30.763Z,101485.16
2022-08-31T00:33:59.377Z,101484.95
2022-08-31T00:36:28.382Z,101479.23
2022-08-31T00:38:57.977Z,101486.56
2022-08-31T00:41:31.494Z,101484.41
2022-08-31T00:44:03.453Z,101484.27
2022-08-31T00:46:38.337Z,101489.42
2022-08-31T00:49:15.779Z,101489.04
2022-08-31T00:51:47.244Z,101491.18
2022-08-31T00:54:19.726Z,101489.49
2022-08-31T00:56:49.371Z,101492.09
2022-08-31T00:59:20.727Z,101491.39
2022-08-31T01:01:50.559Z,101493.85
2022-08-31T01:04:19.034Z,101489.96
2022-08-31T01:06:49.793Z,101487.64
2022-08-31T01:09:22.562Z,101487.98
2022-08-31T01:11:51.323Z,101483.48
2022-08-31T01:14:23.281Z,101485.11
2022-08-31T01:16:54.748Z,101488.08
2022-08-31T01:19:29.793Z,101483.73
2022-08-31T01:22:01.246Z,101484.80
2022-08-31T01:24:33.200Z,101486.13
2022-08-31T01:27:05.095Z,101487.40
2022-08-31T01:29:35.858Z,101486.50
2022-08-31T01:32:05.990Z,101481.67
2022-08-31T01:34:34.991Z,101483.14
2022-08-31T01:37:03.478Z,101480.61
2022-08-31T01:39:32.075Z,101485.47
2022-08-31T01:42:01.037Z,101483.89
2022-08-31T01:44:30.392Z,101486.63
2022-08-31T01:46:59.009Z,101486.65
2022-08-31T01:49:29.527Z,101491.95
2022-08-31T01:51:59.336Z,101494.44
2022-08-31T01:54:28.294Z,101493.39
2022-08-31T01:56:57.035Z,101496.28
2022-08-31T01:59:33.903Z,101499.62
2022-08-31T02:02:21.509Z,101495.34
2022-08-31T02:04:50.029Z,101500.19
2022-08-31T02:07:21.641Z,101498.52
2022-08-31T02:09:50.196Z,101495.33
2022-08-31T02:12:19.575Z,101493.46
2022-08-31T02:14:48.852Z,101494.47
2022-08-31T02:17:17.711Z,101490.21
2022-08-31T02:19:46.188Z,101487.19
2022-08-31T02:22:16.060Z,101489.29
2022-08-31T02:24:44.621Z,101490.44
2022-08-31T02:27:13.650Z,101489.73
2022-08-31T02:29:42.653Z,101486.42
2022-08-31T02:32:20.133Z,101492.90
2022-08-31T02:34:50.221Z,101492.48
2022-08-31T02:37:20.560Z,101490.84
2022-08-31T02:39:50.331Z,101484.20
2022-08-31T02:42:19.922Z,101488.67
2022-08-31T02:44:48.301Z,101487.74
2022-08-31T02:47:16.903Z,101485.02
2022-08-31T02:50:10.231Z,101484.13
2022-08-31T02:52:38.870Z,101484.79
2022-08-31T02:55:08.984Z,101486.33
2022-08-31T02:57:37.956Z,101487.14
2022-08-31T03:00:08.968Z,101484.39
2022-08-31T03:02:38.022Z,101486.07
2022-08-31T03:05:10.479Z,101484.61
2022-08-31T03:07:39.711Z,101481.98
2022-08-31T03:10:14.462Z,101486.84
2022-08-31T03:12:43.411Z,101486.61
2022-08-31T03:15:12.319Z,101485.96
2022-08-31T03:17:47.370Z,101491.76
2022-08-31T03:20:18.985Z,101492.66
2022-08-31T03:22:48.692Z,101491.77
2022-08-31T03:25:19.148Z,101495.58
2022-08-31T03:27:47.870Z,101495.27
2022-08-31T03:30:19.672Z,101491.79
2022-08-31T03:33:02.339Z,101488.77
2022-08-31T03:35:32.841Z,101490.64
2022-08-31T03:38:03.000Z,101493.39
2022-08-31T03:40:32.064Z,101495.20
2022-08-31T03:43:00.737Z,101499.57
2022-08-31T03:45:32.317Z,101495.46
2022-08-31T03:48:01.060Z,101494.16
2022-08-31T03:50:30.895Z,101496.06
2022-08-31T03:53:09.276Z,101499.13
2022-08-31T03:55:41.530Z,101501.12
2022-08-31T03:58:11.624Z,101498.76
2022-08-31T04:00:42.801Z,101497.39
2022-08-31T04:03:16.382Z,101496.27
2022-08-31T04:06:08.513Z,101497.21
2022-08-31T04:08:56.146Z,101496.81
2022-08-31T04:11:46.882Z,101498.53
2022-08-31T04:14:44.493Z,101501.44
2022-08-31T04:17:34.141Z,101503.69
2022-08-31T04:20:18.519Z,101499.20
2022-08-31T04:22:53.018Z,101501.95
2022-08-31T04:25:41.363Z,101502.27
2022-08-31T04:28:10.867Z,101507.12
2022-08-31T04:30:42.770Z,101501.16
2022-08-31T04:33:12.758Z,101504.20
2022-08-31T04:35:42.532Z,101505.41
2022-08-31T04:38:12.198Z,101505.73
2022-08-31T04:40:43.797Z,101508.88
2022-08-31T04:43:12.650Z,101507.33
2022-08-31T04:45:44.638Z,101507.30
2022-08-31T04:48:15.509Z,101508.42
2022-08-31T04:50:44.472Z,101505.48
2022-08-31T04:53:13.760Z,101503.80
2022-08-31T04:55:43.783Z,101503.18
2022-08-31T04:58:13.980Z,101500.96
2022-08-31T05:00:44.262Z,101502.05
2022-08-31T05:03:13.277Z,101502.11
2022-08-31T05:05:42.435Z,101505.77
2022-08-31T05:08:10.882Z,101502.71
2022-08-31T05:10:41.535Z,101501.48
2022-08-31T05:13:10.124Z,101500.90
2022-08-31T05:15:43.890Z,101504.29
2022-08-31T05:18:14.796Z,101503.74
2022-08-31T05:20:49.503Z,101505.73
2022-08-31T05:23:19.382Z,101510.55
2022-08-31T05:25:48.636Z,101512.08
2022-08-31T05:28:22.133Z,101512.04
2022-08-31T05:30:51.055Z,101511.23
2022-08-31T05:33:36.993Z,101512.13
2022-08-31T05:36:05.916Z,101511.69
2022-08-31T05:38:35.633Z,101513.73
2022-08-31T05:41:06.376Z,101521.54
2022-08-31T05:43:35.117Z,101523.93
2022-08-31T05:46:13.762Z,101529.20
2022-08-31T05:48:43.164Z,101530.73
2022-08-31T05:51:19.581Z,101536.77
2022-08-31T05:53:48.852Z,101541.21
2022-08-31T05:56:21.337Z,101544.81
2022-08-31T05:58:51.832Z,101545.71
2022-08-31T06:01:24.608Z,101545.80
2022-08-31T06:04:16.507Z,101548.93
2022-08-31T06:06:46.058Z,101548.30
2022-08-31T06:09:16.262Z,101547.44
2022-08-31T06:11:47.426Z,101548.60
2022-08-31T06:14:18.779Z,101551.36
2022-08-31T06:16:48.614Z,101556.67
2022-08-31T06:19:20.463Z,101558.81
2022-08-31T06:21:51.577Z,101559.00
2022-08-31T06:24:29.272Z,101562.34
2022-08-31T06:26:59.655Z,101561.15
2022-08-31T06:29:33.181Z,101569.64
2022-08-31T06:32:08.359Z,101566.20
2022-08-31T06:34:42.577Z,101565.68
2022-08-31T06:37:30.003Z,101569.98
2022-08-31T06:40:11.055Z,101566.13
2022-08-31T06:42:39.673Z,101570.50
2022-08-31T06:45:41.962Z,101569.02
2022-08-31T06:48:29.231Z,101572.86
2022-08-31T06:50:59.702Z,101570.83
2022-08-31T06:53:29.817Z,101574.10
2022-08-31T06:56:21.613Z,101579.23
2022-08-31T06:59:28.499Z,101578.91
2022-08-31T07:02:16.485Z,101577.27
2022-08-31T07:04:45.216Z,101577.56
2022-08-31T07:07:13.859Z,101583.16
2022-08-31T07:09:44.478Z,101585.89
2022-08-31T07:12:13.403Z,101585.75
2022-08-31T07:14:42.096Z,101588.36
2022-08-31T07:17:19.351Z,101584.33
2022-08-31T07:19:47.781Z,101585.32
2022-08-31T07:22:17.789Z,101585.35
2022-08-31T07:24:48.842Z,101584.69
2022-08-31T07:27:18.808Z,101585.62
2022-08-31T07:29:54.714Z,101590.43
2022-08-31T07:32:24.448Z,101590.63
2022-08-31T07:34:58.501Z,101589.73
2022-08-31T07:37:52.054Z,101592.42
2022-08-31T07:40:44.463Z,101594.27
2022-08-31T07:43:15.139Z,101595.36
2022-08-31T07:45:44.245Z,101593.21
2022-08-31T07:48:16.853Z,101594.11
2022-08-31T07:51:05.765Z,101598.63
2022-08-31T07:53:47.926Z,101596.69
2022-08-31T07:56:46.883Z,101607.98
2022-08-31T07:59:22.565Z,101598.86
2022-08-31T08:01:55.809Z,101603.17
2022-08-31T08:04:27.757Z,101606.27
2022-08-31T08:07:34.090Z,101605.08
2022-08-31T08:10:46.812Z,101608.10
2022-08-31T08:13:39.200Z,101602.66
2022-08-31T08:16:34.505Z,101604.71
2022-08-31T08:19:29.046Z,101603.93
2022-08-31T08:21:57.668Z,101606.51
2022-08-31T08:24:31.711Z,101604.94
2022-08-31T08:27:19.278Z,101605.27
2022-08-31T08:29:56.497Z,101602.70
2022-08-31T08:32:31.908Z,101601.16
2022-08-31T08:35:00.594Z,101597.14
2022-08-31T08:37:47.809Z,101592.36
2022-08-31T08:40:42.933Z,101598.60
2022-08-31T08:43:19.082Z,101602.78
2022-08-31T08:45:53.939Z,101600.26
2022-08-31T08:48:30.090Z,101602.69
2022-08-31T08:51:02.402Z,101599.25
2022-08-31T08:53:46.965Z,101598.58
2022-08-31T08:56:33.878Z,101600.91
2022-08-31T08:59:09.910Z,101603.55
2022-08-31T09:01:46.514Z,101606.25
2022-08-31T09:04:31.161Z,101606.35
2022-08-31T09:07:23.223Z,101605.52
2022-08-31T09:10:22.012Z,101612.51
2022-08-31T09:13:10.149Z,101613.46
2022-08-31T09:16:04.814Z,101613.20
2022-08-31T09:18:50.058Z,101610.21
2022-08-31T09:21:24.003Z,101603.27
2022-08-31T09:24:04.329Z,101600.09
2022-08-31T09:26:58.817Z,101598.33
2022-08-31T09:29:34.769Z,101591.05
2022-08-31T09:32:10.309Z,101590.70
2022-08-31T09:34:42.701Z,101596.67
2022-08-31T09:37:16.542Z,101593.42
2022-08-31T09:39:48.862Z,101595.27
2022-08-31T09:42:31.602Z,101593.34
2022-08-31T09:45:16.242Z,101591.20
2022-08-31T09:47:58.751Z,101595.05
2022-08-31T09:50:45.377Z,101593.10
2022-08-31T09:53:38.426Z,101598.41
2022-08-31T09:56:14.426Z,101590.84
2022-08-31T09:58:45.010Z,101594.56
2022-08-31T10:01:28.890Z,101590.84
2022-08-31T10:04:20.517Z,101590.88
2022-08-31T10:07:00.766Z,101585.92
2022-08-31T10:09:57.879Z,101587.88
2022-08-31T10:12:46.494Z,101582.92
2022-08-31T10:15:23.798Z,101573.41
2022-08-31T10:18:29.132Z,101574.52
2022-08-31T10:21:08.421Z,101569.95
2022-08-31T10:23:54.789Z,101561.80
2022-08-31T10:26:34.557Z,101557.73
2022-08-31T10:29:19.133Z,101562.78
2022-08-31T10:31:56.093Z,101561.80
2022-08-31T10:34:49.786Z,101562.88
2022-08-31T10:37:44.200Z,101557.05
2022-08-31T10:40:35.398Z,101557.66
2022-08-31T10:43:18.102Z,101555.04
2022-08-31T10:45:49.789Z,101554.85
2022-08-31T10:48:22.320Z,101549.20
2022-08-31T10:51:23.598Z,101548.23
2022-08-31T10:53:55.349Z,101543.42
2022-08-31T10:56:41.590Z,101539.02
2022-08-31T10:59:23.353Z,101534.67
2022-08-31T11:02:04.784Z,101527.88
2022-08-31T11:04:45.435Z,101531.93
2022-08-31T11:07:26.663Z,101537.23
2022-08-31T11:10:20.248Z,101533.01
2022-08-31T11:12:57.737Z,101529.19
2022-08-31T11:15:58.630Z,101525.36
2022-08-31T11:18:40.363Z,101518.99
2022-08-31T11:21:29.219Z,101515.09
2022-08-31T11:24:19.004Z,101509.91
2022-08-31T11:26:57.335Z,101506.81
2022-08-31T11:29:42.095Z,101509.64
2022-08-31T11:32:22.063Z,101512.55
2022-08-31T11:34:55.230Z,101516.00
2022-08-31T11:37:47.156Z,101510.58
2022-08-31T11:40:42.243Z,101507.91
2022-08-31T11:43:32.865Z,101506.39
2022-08-31T11:46:27.239Z,101507.02
2022-08-31T11:48:56.245Z,101510.73
2022-08-31T11:51:38.647Z,101513.83
2022-08-31T11:54:33.565Z,101512.14
2022-08-31T11:57:03.349Z,101509.67
2022-08-31T11:59:35.662Z,101509.86
2022-08-31T12:02:19.852Z,101511.17
2022-08-31T12:04:57.775Z,101511.79
2022-08-31T12:07:36.249Z,101507.73
2022-08-31T12:10:07.537Z,101506.21
2022-08-31T12:12:48.678Z,101509.30
2022-08-31T12:15:25.915Z,101507.79
2022-08-31T12:18:12.848Z,101505.74
2022-08-31T12:21:20.620Z,101508.34
2022-08-31T12:23:52.117Z,101509.57
2022-08-31T12:26:56.090Z,101513.20
2022-08-31T12:29:33.061Z,101509.17
2022-08-31T12:32:02.200Z,101506.58
2022-08-31T12:34:31.992Z,101507.48
2022-08-31T12:37:00.672Z,101507.64
2022-08-31T12:39:29.687Z,101503.71
2022-08-31T12:42:03.270Z,101505.38
2022-08-31T12:44:50.321Z,101505.20
2022-08-31T12:47:50.914Z,101501.45
2022-08-31T12:50:22.182Z,101501.73
2022-08-31T12:53:24.789Z,101498.90
2022-08-31T12:56:14.499Z,101500.72
2022-08-31T12:59:01.945Z,101495.59
2022-08-31T13:01:31.142Z,101488.80
2022-08-31T13:04:02.928Z,101490.14
2022-08-31T13:06:34.364Z,101487.43
2022-08-31T13:09:05.682Z,101484.06
2022-08-31T13:11:40.773Z,101482.30
2022-08-31T13:14:21.141Z,101482.54
2022-08-31T13:17:15.551Z,101485.23
2022-08-31T13:19:56.571Z,101478.77
2022-08-31T13:22:30.317Z,101479.39
2022-08-31T13:25:19.832Z,101478.48
2022-08-31T13:27:52.047Z,101482.48
2022-08-31T13:30:25.421Z,101480.59
2022-08-31T13:32:55.074Z,101481.21
2022-08-31T13:35:34.289Z,101482.30
2022-08-31T13:38:05.747Z,101475.96
2022-08-31T13:40:39.676Z,101473.71
2022-08-31T13:43:11.020Z,101469.14
2022-08-31T13:45:53.413Z,101470.39
2022-08-31T13:48:33.835Z,101471.38
2022-08-31T13:51:13.397Z,101480.06
2022-08-31T13:53:46.755Z,101482.15
2022-08-31T13:56:40.964Z,101482.24
2022-08-31T13:59:20.498Z,101477.02
2022-08-31T14:01:52.145Z,101482.05
2022-08-31T14:04:57.510Z,101482.41
2022-08-31T14:07:28.950Z,101481.41
2022-08-31T14:10:15.361Z,101481.13
2022-08-31T14:13:04.179Z,101478.68
2022-08-31T14:15:50.819Z,101478.09
2022-08-31T14:18:43.487Z,101480.42
2022-08-31T14:21:25.389Z,101478.57
2022-08-31T14:24:02.813Z,101476.97
2022-08-31T14:26:41.914Z,101477.95
2022-08-31T14:29:14.085Z,101478.80
2022-08-31T14:31:52.520Z,101476.20
2022-08-31T14:34:32.431Z,101473.17
2022-08-31T14:37:07.817Z,101471.92
2022-08-31T14:39:45.893Z,101474.91
2022-08-31T14:42:26.731Z,101473.49
2022-08-31T14:45:02.760Z,101472.14
2022-08-31T14:47:36.499Z,101471.21
2022-08-31T14:50:06.049Z,101472.58
2022-08-31T14:52:42.080Z,101471.46
2022-08-31T14:55:11.465Z,101466.93
2022-08-31T14:57:43.720Z,101469.05
2022-08-31T15:00:23.695Z,101465.17
2022-08-31T15:02:53.770Z,101465.54
2022-08-31T15:05:25.570Z,101466.60
2022-08-31T15:07:55.270Z,101464.59
2022-08-31T15:10:26.255Z,101461.83
2022-08-31T15:12:56.157Z,101461.35
2022-08-31T15:15:24.917Z,101462.11
2022-08-31T15:17:54.125Z,101461.00
2022-08-31T15:20:23.051Z,101457.80
2022-08-31T15:22:52.338Z,101456.30
2022-08-31T15:25:22.725Z,101458.02
2022-08-31T15:27:52.009Z,101458.05
2022-08-31T15:30:20.512Z,101456.95
2022-08-31T15:32:49.424Z,101455.80
2022-08-31T15:35:23.547Z,101456.77
2022-08-31T15:37:59.504Z,101457.80
2022-08-31T15:40:29.803Z,101457.02
2022-08-31T15:43:01.985Z,101452.50
2022-08-31T15:45:31.661Z,101453.84
2022-08-31T15:48:19.235Z,101449.10
2022-08-31T15:51:00.762Z,101449.09
2022-08-31T15:53:30.971Z,101444.89
2022-08-31T15:56:06.542Z,101443.40
2022-08-31T15:58:39.314Z,101448.01
2022-08-31T16:01:19.127Z,101446.63
2022-08-31T16:03:55.805Z,101445.45
2022-08-31T16:06:32.911Z,101444.91
2022-08-31T16:09:02.915Z,101445.17
2022-08-31T16:11:37.173Z,101442.34
2022-08-31T16:14:11.186Z,101437.70
2022-08-31T16:16:43.218Z,101431.38
2022-08-31T16:19:27.769Z,101429.94
2022-08-31T16:22:02.232Z,101431.25
2022-08-31T16:24:36.055Z,101429.64
2022-08-31T16:27:08.315Z,101427.59
2022-08-31T16:29:36.794Z,101426.83
2022-08-31T16:32:06.990Z,101427.44
2022-08-31T16:34:37.399Z,101422.13
2022-08-31T16:37:08.385Z,101421.41
2022-08-31T16:39:40.331Z,101421.31
2022-08-31T16:42:11.390Z,101423.28
2022-08-31T16:44:43.957Z,101421.89
2022-08-31T16:47:16.402Z,101417.80
2022-08-31T16:49:46.002Z,101409.53
2022-08-31T16:52:21.761Z,101409.23
2022-08-31T16:54:51.211Z,101409.56
2022-08-31T16:57:25.707Z,101409.97
2022-08-31T16:59:57.387Z,101420.89
2022-08-31T17:02:27.928Z,101422.02
2022-08-31T17:05:00.874Z,101424.05
2022-08-31T17:07:29.334Z,101424.56
2022-08-31T17:10:07.362Z,101426.36
2022-08-31T17:12:37.175Z,101427.67
2022-08-31T17:15:06.718Z,101432.95
2022-08-31T17:17:35.459Z,101434.13
2022-08-31T17:20:05.438Z,101432.60
2022-08-31T17:22:33.934Z,101433.56
2022-08-31T17:25:05.098Z,101431.55
2022-08-31T17:27:34.931Z,101433.02
2022-08-31T17:30:07.878Z,101435.29
2022-08-31T17:32:43.225Z,101433.61
2022-08-31T17:35:19.141Z,101438.85
2022-08-31T17:37:49.702Z,101440.08
2022-08-31T17:40:19.290Z,101444.38
2022-08-31T17:42:50.349Z,101452.39
2022-08-31T17:45:21.797Z,101455.75
2022-08-31T17:47:51.404Z,101455.15
2022-08-31T17:50:21.937Z,101455.29
2022-08-31T17:52:50.722Z,101461.17
2022-08-31T17:55:19.413Z,101463.41
2022-08-31T17:57:48.105Z,101466.13
2022-08-31T18:00:17.269Z,101467.48
2022-08-31T18:02:46.187Z,101468.29
2022-08-31T18:05:16.922Z,101471.27
2022-08-31T18:07:48.677Z,101471.21
2022-08-31T18:10:19.334Z,101475.31
2022-08-31T18:12:48.005Z,101479.84
2022-08-31T18:15:19.662Z,101476.67
2022-08-31T18:17:48.775Z,101482.90
2022-08-31T18:20:17.752Z,101482.67
2022-08-31T18:22:51.581Z,101486.02
2022-08-31T18:25:21.816Z,101484.83
2022-08-31T18:27:51.033Z,101488.94
2022-08-31T18:30:20.175Z,101490.64
2022-08-31T18:32:49.746Z,101490.45
2022-08-31T18:35:18.361Z,101490.49
2022-08-31T18:37:48.379Z,101493.98
2022-08-31T18:40:35.989Z,101492.30
2022-08-31T18:43:23.674Z,101491.20
2022-08-31T18:45:53.071Z,101492.42
2022-08-31T18:48:26.450Z,101495.81
2022-08-31T18:50:57.496Z,101490.17
2022-08-31T18:53:30.582Z,101491.48
2022-08-31T18:56:08.912Z,101492.45
2022-08-31T18:58:38.924Z,101497.59
2022-08-31T19:01:10.904Z,101496.81
2022-08-31T19:03:41.391Z,101499.38
2022-08-31T19:06:23.706Z,101503.03
2022-08-31T19:08:53.414Z,101502.77
2022-08-31T19:11:23.602Z,101505.95
2022-08-31T19:13:54.251Z,101505.89
2022-08-31T19:16:28.975Z,101509.54
2022-08-31T19:18:59.556Z,101509.61
2022-08-31T19:21:31.403Z,101505.55
2022-08-31T19:24:05.105Z,101507.85
2022-08-31T19:26:41.059Z,101508.48
2022-08-31T19:29:14.725Z,101506.25
2022-08-31T19:31:47.539Z,101510.04
2022-08-31T19:34:20.540Z,101510.52
2022-08-31T19:36:54.468Z,101511.89
2022-08-31T19:39:28.248Z,101513.43
2022-08-31T19:42:01.139Z,101509.42
2022-08-31T19:47:25.680Z,101515.61
2022-08-31T19:49:54.661Z,101510.75
2022-08-31T19:52:25.515Z,101514.02
2022-08-31T19:54:54.574Z,101511.92
2022-08-31T19:57:24.092Z,101512.17
2022-08-31T19:59:52.787Z,101512.20
2022-08-31T20:02:22.205Z,101512.30
2022-08-31T20:04:51.181Z,101511.92
2022-08-31T20:07:20.775Z,101510.38
2022-08-31T20:09:49.780Z,101513.59
2022-08-31T20:12:19.707Z,101517.36
2022-08-31T20:14:49.094Z,101514.09
2022-08-31T20:17:20.979Z,101515.57
2022-08-31T20:19:51.313Z,101521.64
2022-08-31T20:22:20.984Z,101521.02
2022-08-31T20:24:50.407Z,101524.89
2022-08-31T20:27:19.942Z,101522.41
2022-08-31T20:29:48.873Z,101522.62
2022-08-31T20:32:17.767Z,101526.73
2022-08-31T20:34:46.556Z,101528.88
2022-08-31T20:37:15.438Z,101533.04
2022-08-31T20:39:44.251Z,101535.56
2022-08-31T20:42:13.455Z,101534.13
2022-08-31T20:44:46.610Z,101535.19
2022-08-31T20:47:36.733Z,101533.98
2022-08-31T20:50:07.677Z,101536.83
2022-08-31T20:52:36.431Z,101535.83
2022-08-31T20:55:07.235Z,101541.09
2022-08-31T20:57:41.122Z,101543.11
2022-08-31T21:00:10.887Z,101538.21
2022-08-31T21:02:42.478Z,101539.02
2022-08-31T21:08:04.573Z,101535.86
2022-08-31T21:10:38.180Z,101541.72
2022-08-31T21:13:10.385Z,101546.90
2022-08-31T21:15:46.823Z,101546.89
2022-08-31T21:18:19.560Z,101544.22
2022-08-31T21:20:49.221Z,101549.04
2022-08-31T21:23:19.141Z,101548.66
2022-08-31T21:25:48.362Z,101549.58
2022-08-31T21:28:18.781Z,101554.58
2022-08-31T21:30:50.625Z,101553.67
2022-08-31T21:33:19.756Z,101553.84
2022-08-31T21:35:49.149Z,101551.08
2022-08-31T21:38:18.855Z,101542.62
2022-08-31T21:40:51.450Z,101547.63
2022-08-31T21:43:20.583Z,101554.00
2022-08-31T21:46:02.145Z,101555.91
2022-08-31T21:48:33.180Z,101554.77
2022-08-31T21:51:20.170Z,101557.09
2022-08-31T21:53:52.832Z,101555.82
2022-08-31T21:56:23.591Z,101559.13
2022-08-31T21:58:53.213Z,101557.06
2022-08-31T22:01:24.577Z,101555.81
2022-08-31T22:03:58.550Z,101555.16
2022-08-31T22:06:31.646Z,101553.76
2022-08-31T22:09:06.007Z,101555.13
2022-08-31T22:11:38.639Z,101556.42
2022-08-31T22:14:10.808Z,101554.52
2022-08-31T22:16:40.107Z,101552.34
2022-08-31T22:19:13.322Z,101549.91
2022-08-31T22:21:45.887Z,101551.91
2022-08-31T22:24:27.357Z,101548.08
2022-08-31T22:27:00.980Z,101554.69
2022-08-31T22:29:34.074Z,101554.61
2022-08-31T22:32:09.399Z,101554.73
2022-08-31T22:34:39.157Z,101560.02
2022-08-31T22:37:09.597Z,101555.56
2022-08-31T22:39:39.970Z,101558.42
2022-08-31T22:42:09.424Z,101556.65
2022-08-31T22:44:41.135Z,101558.79
2022-08-31T22:47:10.634Z,101554.70
2022-08-31T22:49:39.937Z,101551.64
2022-08-31T22:52:08.730Z,101552.91
2022-08-31T22:54:37.514Z,101548.33
2022-08-31T22:57:06.337Z,101546.45
2022-08-31T22:59:35.516Z,101551.59
2022-08-31T23:02:04.949Z,101551.05
2022-08-31T23:04:35.151Z,101550.82
2022-08-31T23:07:04.643Z,101544.63
2022-08-31T23:09:34.757Z,101543.16
2022-08-31T23:12:05.583Z,101545.54
2022-08-31T23:14:34.643Z,101546.64
2022-08-31T23:17:09.848Z,101550.31
2022-08-31T23:19:42.583Z,101549.91
2022-08-31T23:22:15.507Z,101550.33
2022-08-31T23:24:47.871Z,101552.23
2022-08-31T23:27:19.708Z,101550.73
2022-08-31T23:29:51.881Z,101552.27
2022-08-31T23:32:26.318Z,101548.77
2022-08-31T23:34:58.644Z,101545.00
2022-08-31T23:37:28.357Z,101546.42
2022-08-31T23:40:00.068Z,101544.91
2022-08-31T23:42:30.216Z,101547.05
2022-08-31T23:44:59.367Z,101551.07
2022-08-31T23:47:31.753Z,101551.41
2022-08-31T23:50:05.371Z,101547.88
2022-08-31T23:52:38.192Z,101545.39
2022-08-31T23:55:07.418Z,101546.24
2022-08-31T23:57:37.694Z,101545.90
